General Aviation Weather

Text Reports

Enter one or more of the following location identifiers separated by a space:

Zip Code, Four-Character ICAO or Three-Character IATA airport codes.

METAR - Aviation Routine Weather Report
KMTO - Mattoon, Illinois
Updated at 6:53 PM GMT on September 22, 2014 (1:53 PM CDT):
METAR KMTO 221853Z AUTO 33003KT 10SM CLR 20/08 A3026 RMK AO2 SLP246 T02000078
TAF - Terminal Area Forecast
KMTO - Mattoon, Illinois
Updated at 6:53 PM GMT on September 22, 2014 (1:53 PM CDT):
No TAF is currently available for this location.
Decoded:
No decoded TAF is available.
PIREP - Pilot Weather Report
KMTO - Mattoon, Illinois
Updated at 6:53 PM GMT on September 22, 2014 (1:53 PM CDT):
No PIREP is currently available for this location.
AIRMET - Airmens Meteorological Information
KMTO - Mattoon, Illinois
Updated at 6:53 PM GMT on September 22, 2014 (1:53 PM CDT):
No AIRMET is currently available for this location.
SIGMET - Significant Meteorological Information
KMTO - Mattoon, Illinois
Updated at 6:53 PM GMT on September 22, 2014 (1:53 PM CDT):
No SIGMET is currently available for this location.
NOTAM - Notice to Airmen
KMTO - Mattoon, Illinois
Updated at 6:53 PM GMT on September 22, 2014 (1:53 PM CDT):
No NOTAM is currently available for this location.
Forecast Area
KMTO - Mattoon, Illinois
Updated at 6:53 PM GMT on September 22, 2014 (1:53 PM CDT):
No NOTAM is currently available for this location.
Aviation Weather Maps